Terminal Aerodrome Forecast
Issued by NWS Portland, OR

Home | Current Version | Previous Version | Text Only | Print | Product List | Glossary On
Versions: 1 2 3 4 5 6 7 8 9 10 11 12 13 14 15 16 17 18 19 20 21 22 23
000
FTUS46 KPQR 161140
TAFPDX
TAF
KPDX 161140Z 1612/1712 12010KT P6SM SCT100 OVC150
     FM161900 12011KT P6SM SCT120 BKN200
     FM170300 12012KT P6SM SCT050 BKN120
     FM171130 12011KT 6SM -FZRA BKN050 OVC100=

USA.gov is the U.S. government's official web portal to all federal, state and local government web resources and services.